createdAt,value
2023-01-19T00:01:29.146Z,91.14
2023-01-19T00:03:55.657Z,90.74
2023-01-19T00:06:22.239Z,90.27
2023-01-19T00:08:50.235Z,90.54
2023-01-19T00:11:19.946Z,90.34
2023-01-19T00:13:50.398Z,91.02
2023-01-19T00:16:18.936Z,91.04
2023-01-19T00:18:45.871Z,90.03
2023-01-19T00:21:14.772Z,90.34
2023-01-19T00:23:42.467Z,90.97
2023-01-19T00:26:10.305Z,90.83
2023-01-19T00:28:37.147Z,91.49
2023-01-19T00:31:03.660Z,92.21
2023-01-19T00:33:30.240Z,92.26
2023-01-19T00:35:56.748Z,92.20
2023-01-19T00:38:23.420Z,92.10
2023-01-19T00:40:50.060Z,91.76
2023-01-19T00:43:16.762Z,92.23
2023-01-19T00:45:45.629Z,92.98
2023-01-19T00:48:12.169Z,92.73
2023-01-19T00:50:38.682Z,91.96
2023-01-19T00:53:05.257Z,92.37
2023-01-19T00:55:33.530Z,92.80
2023-01-19T00:58:00.110Z,92.29
2023-01-19T01:00:26.793Z,93.04
2023-01-19T01:02:53.798Z,92.72
2023-01-19T01:05:21.113Z,92.56
2023-01-19T01:07:49.565Z,92.22
2023-01-19T01:10:21.763Z,93.22
2023-01-19T01:12:56.798Z,92.98
2023-01-19T01:15:26.424Z,92.54
2023-01-19T01:17:53.289Z,92.98
2023-01-19T01:20:27.010Z,93.31
2023-01-19T01:22:54.317Z,93.52
2023-01-19T01:25:25.349Z,92.32
2023-01-19T01:27:52.431Z,92.29
2023-01-19T01:30:20.695Z,92.41
2023-01-19T01:32:47.234Z,92.47
2023-01-19T01:35:14.265Z,91.56
2023-01-19T01:37:41.124Z,91.38
2023-01-19T01:40:09.040Z,91.22
2023-01-19T01:42:35.803Z,90.95
2023-01-19T01:45:13.623Z,90.61
2023-01-19T01:47:45.569Z,90.39
2023-01-19T01:50:20.586Z,90.60
2023-01-19T01:53:06.804Z,90.86
2023-01-19T01:55:43.268Z,89.56
2023-01-19T01:58:11.639Z,90.72
2023-01-19T02:00:58.623Z,90.27
2023-01-19T02:03:26.332Z,89.68
2023-01-19T02:05:57.610Z,89.94
2023-01-19T02:09:05.097Z,89.91
2023-01-19T02:11:51.737Z,89.59
2023-01-19T02:14:19.082Z,89.80
2023-01-19T02:16:46.526Z,89.92
2023-01-19T02:19:24.667Z,88.96
2023-01-19T02:22:18.561Z,89.23
2023-01-19T02:24:45.125Z,89.46
2023-01-19T02:27:12.700Z,89.11
2023-01-19T02:29:39.664Z,89.15
2023-01-19T02:32:06.230Z,89.02
2023-01-19T02:34:32.921Z,89.29
2023-01-19T02:37:14.712Z,89.23
2023-01-19T02:39:50.789Z,89.62
2023-01-19T02:42:24.248Z,88.96
2023-01-19T02:44:53.477Z,89.84
2023-01-19T02:47:20.083Z,88.86
2023-01-19T02:50:00.304Z,89.72
2023-01-19T02:52:28.217Z,89.51
2023-01-19T02:55:08.813Z,89.54
2023-01-19T02:57:39.975Z,88.65
2023-01-19T03:00:14.403Z,87.92
2023-01-19T03:02:59.281Z,88.32
2023-01-19T03:05:56.933Z,88.86
2023-01-19T03:09:02.971Z,87.94
2023-01-19T03:11:35.168Z,89.55
2023-01-19T03:14:09.007Z,88.78
2023-01-19T03:16:57.190Z,89.63
2023-01-19T03:19:27.626Z,89.47
2023-01-19T03:22:00.349Z,89.50
2023-01-19T03:24:31.451Z,89.16
2023-01-19T03:27:08.479Z,88.55
2023-01-19T03:29:37.748Z,88.91
2023-01-19T03:32:09.296Z,89.20
2023-01-19T03:34:38.372Z,89.51
2023-01-19T03:37:07.419Z,89.75
2023-01-19T03:39:34.229Z,89.80
2023-01-19T03:42:11.778Z,89.99
2023-01-19T03:44:40.376Z,90.34
2023-01-19T03:47:09.817Z,90.06
2023-01-19T03:49:37.909Z,89.25
2023-01-19T03:52:05.236Z,89.91
2023-01-19T03:54:31.962Z,90.02
2023-01-19T03:56:58.507Z,90.99
2023-01-19T03:59:25.035Z,90.64
2023-01-19T04:01:51.575Z,91.03
2023-01-19T04:04:18.126Z,90.61
2023-01-19T04:06:44.779Z,91.85
2023-01-19T04:09:11.276Z,91.65
2023-01-19T04:11:37.968Z,91.35
2023-01-19T04:14:04.658Z,91.80
2023-01-19T04:16:31.178Z,92.25
2023-01-19T04:18:57.862Z,92.27
2023-01-19T04:21:24.524Z,91.88
2023-01-19T04:23:51.515Z,92.78
2023-01-19T04:26:18.246Z,92.56
2023-01-19T04:28:44.847Z,91.80
2023-01-19T04:31:11.421Z,92.46
2023-01-19T04:33:37.965Z,92.38
2023-01-19T04:36:04.960Z,93.10
2023-01-19T04:38:31.451Z,92.47
2023-01-19T04:40:57.998Z,92.78
2023-01-19T04:43:24.613Z,93.26
2023-01-19T04:45:51.352Z,93.95
2023-01-19T04:48:18.980Z,93.91
2023-01-19T04:50:46.005Z,93.61
2023-01-19T04:53:13.707Z,94.69
2023-01-19T04:55:40.729Z,93.88
2023-01-19T04:58:07.311Z,93.99
2023-01-19T05:00:33.871Z,94.61
2023-01-19T05:03:01.660Z,94.38
2023-01-19T05:05:28.651Z,94.32
2023-01-19T05:07:55.336Z,94.34
2023-01-19T05:10:22.127Z,94.23
2023-01-19T05:12:48.720Z,94.14
2023-01-19T05:15:15.218Z,94.14
2023-01-19T05:17:42.018Z,94.09
2023-01-19T05:20:12.520Z,94.02
2023-01-19T05:22:39.917Z,94.12
2023-01-19T05:25:08.808Z,94.70
2023-01-19T05:27:36.647Z,94.55
2023-01-19T05:30:05.082Z,95.03
2023-01-19T05:32:31.583Z,95.60
2023-01-19T05:34:58.197Z,95.56
2023-01-19T05:37:24.725Z,95.11
2023-01-19T05:39:51.578Z,94.85
2023-01-19T05:42:18.075Z,95.85
2023-01-19T05:44:44.612Z,95.79
2023-01-19T05:47:11.544Z,95.90
2023-01-19T05:49:38.118Z,95.21
2023-01-19T05:52:04.673Z,95.04
2023-01-19T05:54:31.178Z,95.39
2023-01-19T05:56:58.250Z,95.17
2023-01-19T05:59:24.852Z,95.90
2023-01-19T06:01:52.082Z,96.09
2023-01-19T06:04:19.969Z,96.31
2023-01-19T06:06:49.897Z,95.90
2023-01-19T06:09:17.347Z,95.88
2023-01-19T06:11:45.943Z,96.12
2023-01-19T06:14:12.905Z,95.70
2023-01-19T06:16:39.657Z,95.65
2023-01-19T06:19:06.451Z,95.58
2023-01-19T06:21:34.329Z,94.99
2023-01-19T06:24:01.025Z,94.85
2023-01-19T06:26:27.526Z,94.73
2023-01-19T06:28:54.090Z,95.05
2023-01-19T06:31:20.789Z,94.90
2023-01-19T06:33:47.420Z,94.00
2023-01-19T06:36:13.921Z,93.29
2023-01-19T06:38:40.451Z,93.18
2023-01-19T06:41:06.975Z,92.78
2023-01-19T06:43:33.556Z,92.97
2023-01-19T06:46:00.677Z,92.92
2023-01-19T06:48:27.958Z,93.06
2023-01-19T06:50:55.287Z,92.74
2023-01-19T06:53:22.498Z,92.94
2023-01-19T06:55:49.143Z,92.09
2023-01-19T06:58:15.862Z,93.76
2023-01-19T07:00:43.080Z,93.57
2023-01-19T07:03:19.211Z,93.71
2023-01-19T07:05:45.759Z,93.43
2023-01-19T07:08:12.934Z,93.88
2023-01-19T07:11:25.563Z,94.10
2023-01-19T07:13:26.010Z,93.11
2023-01-19T07:15:52.582Z,93.66
2023-01-19T07:18:19.122Z,93.52
2023-01-19T07:20:46.879Z,93.58
2023-01-19T07:23:13.531Z,93.54
2023-01-19T07:25:40.120Z,93.10
2023-01-19T07:28:06.784Z,92.04
2023-01-19T07:30:33.433Z,92.13
2023-01-19T07:33:00.363Z,91.65
2023-01-19T07:35:27.087Z,92.12
2023-01-19T07:37:53.613Z,92.06
2023-01-19T07:40:20.295Z,92.42
2023-01-19T07:42:48.721Z,93.02
2023-01-19T07:45:20.343Z,92.84
2023-01-19T07:47:51.761Z,92.81
2023-01-19T07:50:21.407Z,91.99
2023-01-19T07:52:50.673Z,91.31
2023-01-19T07:55:17.413Z,90.54
2023-01-19T07:57:44.093Z,91.54
2023-01-19T08:00:11.536Z,90.51
2023-01-19T08:02:41.210Z,90.64
2023-01-19T08:05:08.116Z,91.54
2023-01-19T08:07:34.720Z,90.63
2023-01-19T08:10:01.201Z,90.59
2023-01-19T08:12:27.739Z,90.58
2023-01-19T08:14:54.336Z,89.53
2023-01-19T08:17:20.872Z,89.13
2023-01-19T08:19:47.352Z,89.91
2023-01-19T08:22:13.913Z,89.04
2023-01-19T08:24:40.434Z,89.92
2023-01-19T08:27:07.124Z,89.56
2023-01-19T08:29:33.770Z,88.78
2023-01-19T08:32:02.252Z,90.08
2023-01-19T08:34:31.050Z,88.40
2023-01-19T08:36:58.460Z,88.03
2023-01-19T08:39:25.501Z,86.55
2023-01-19T08:41:52.472Z,87.62
2023-01-19T08:44:19.135Z,88.00
2023-01-19T08:46:45.814Z,87.14
2023-01-19T08:49:12.741Z,86.16
2023-01-19T08:51:39.338Z,87.58
2023-01-19T08:54:05.980Z,86.24
2023-01-19T08:56:32.580Z,87.64
2023-01-19T08:59:08.742Z,87.67
2023-01-19T09:01:37.220Z,86.51
2023-01-19T09:04:04.067Z,86.34
2023-01-19T09:06:30.621Z,85.46
2023-01-19T09:08:57.743Z,86.30
2023-01-19T09:11:24.620Z,85.29
2023-01-19T09:13:51.304Z,85.25
2023-01-19T09:16:18.124Z,82.60
2023-01-19T09:18:46.040Z,83.62
2023-01-19T09:21:13.833Z,83.03
2023-01-19T09:23:40.459Z,81.87
2023-01-19T09:26:07.106Z,81.62
2023-01-19T09:28:33.876Z,81.31
2023-01-19T09:31:05.355Z,82.23
2023-01-19T09:33:32.083Z,82.61
2023-01-19T09:35:58.961Z,82.04
2023-01-19T09:38:26.970Z,81.79
2023-01-19T09:40:56.324Z,80.13
2023-01-19T09:43:33.553Z,79.28
2023-01-19T09:46:06.041Z,77.62
2023-01-19T09:48:39.181Z,77.70
2023-01-19T09:51:10.538Z,80.52
2023-01-19T09:54:09.378Z,77.32
2023-01-19T09:56:36.084Z,77.90
2023-01-19T09:59:18.030Z,78.34
2023-01-19T10:02:12.552Z,76.45
2023-01-19T10:05:05.334Z,78.42
2023-01-19T10:07:34.603Z,77.23
2023-01-19T10:10:13.924Z,77.23
2023-01-19T10:13:08.396Z,77.82
2023-01-19T10:15:59.603Z,77.65
2023-01-19T10:18:47.808Z,77.20
2023-01-19T10:21:23.058Z,75.87
2023-01-19T10:23:57.609Z,77.21
2023-01-19T10:26:34.569Z,76.00
2023-01-19T10:29:07.995Z,77.41
2023-01-19T10:31:40.163Z,76.77
2023-01-19T10:34:06.781Z,74.08
2023-01-19T10:36:39.963Z,75.13
2023-01-19T10:39:08.177Z,75.06
2023-01-19T10:41:50.823Z,76.19
2023-01-19T10:44:24.595Z,75.87
2023-01-19T10:46:51.912Z,76.24
2023-01-19T10:49:37.628Z,76.48
2023-01-19T10:52:07.688Z,75.96
2023-01-19T10:54:37.260Z,75.05
2023-01-19T10:57:07.853Z,75.56
2023-01-19T10:59:48.661Z,76.32
2023-01-19T11:02:20.259Z,72.70
2023-01-19T11:04:53.096Z,73.45
2023-01-19T11:07:23.310Z,75.02
2023-01-19T11:10:10.515Z,73.47
2023-01-19T11:12:48.635Z,72.32
2023-01-19T11:32:37.445Z,75.30
2023-01-19T11:35:31.874Z,73.09
2023-01-19T11:38:18.230Z,69.37
2023-01-19T11:40:54.344Z,70.55
2023-01-19T11:43:23.726Z,67.75
2023-01-19T11:45:51.589Z,68.13
2023-01-19T11:48:34.106Z,70.26
2023-01-19T11:51:05.142Z,69.74
2023-01-19T11:53:36.079Z,68.12
2023-01-19T11:56:11.464Z,69.15
2023-01-19T11:58:40.900Z,67.89
2023-01-19T12:01:35.520Z,68.91
2023-01-19T12:04:34.556Z,69.49
2023-01-19T12:07:10.505Z,70.42
2023-01-19T12:09:43.755Z,68.64
2023-01-19T12:12:26.525Z,68.28
2023-01-19T12:15:00.729Z,69.30
2023-01-19T12:17:31.119Z,69.62
2023-01-19T12:20:25.264Z,70.66
2023-01-19T12:23:25.798Z,70.02
2023-01-19T12:26:16.724Z,70.04
2023-01-19T12:28:47.310Z,71.19
2023-01-19T12:31:20.381Z,68.87
2023-01-19T12:33:47.876Z,70.46
2023-01-19T12:36:17.212Z,70.66
2023-01-19T12:39:02.425Z,69.33
2023-01-19T12:41:33.807Z,69.96
2023-01-19T12:44:14.021Z,69.36
2023-01-19T12:46:42.042Z,69.98
2023-01-19T12:49:17.508Z,69.59
2023-01-19T12:51:44.466Z,67.24
2023-01-19T12:54:26.489Z,69.28
2023-01-19T12:56:58.476Z,69.27
2023-01-19T12:59:27.094Z,69.63
2023-01-19T13:02:18.165Z,70.76
2023-01-19T13:05:17.398Z,67.81
2023-01-19T13:08:02.106Z,68.88
2023-01-19T13:10:59.379Z,68.50
2023-01-19T13:13:43.709Z,69.54
2023-01-19T13:16:23.071Z,69.91
2023-01-19T13:19:16.282Z,70.30
2023-01-19T13:21:46.041Z,68.57
2023-01-19T13:24:19.670Z,69.57
2023-01-19T13:26:49.442Z,66.75
2023-01-19T13:29:35.290Z,69.87
2023-01-19T13:32:12.950Z,70.88
2023-01-19T13:34:45.933Z,69.95
2023-01-19T13:37:18.457Z,70.90
2023-01-19T13:39:50.019Z,71.71
2023-01-19T13:42:25.198Z,70.65
2023-01-19T13:44:58.356Z,72.31
2023-01-19T13:47:32.633Z,71.38
2023-01-19T13:50:01.332Z,70.07
2023-01-19T13:52:29.530Z,71.31
2023-01-19T13:55:03.600Z,71.22
2023-01-19T13:57:40.672Z,71.54
2023-01-19T14:00:17.348Z,71.80
2023-01-19T14:02:53.340Z,71.33
2023-01-19T14:05:30.762Z,73.46
2023-01-19T14:08:01.662Z,72.25
2023-01-19T14:10:28.667Z,72.60
2023-01-19T14:13:06.668Z,70.70
2023-01-19T14:15:34.988Z,70.92
2023-01-19T14:18:14.616Z,70.88
2023-01-19T14:20:41.225Z,71.40
2023-01-19T14:23:36.377Z,72.01
2023-01-19T14:26:02.909Z,73.00
2023-01-19T14:28:29.396Z,71.59
2023-01-19T14:31:01.596Z,71.40
2023-01-19T14:33:43.571Z,72.31
2023-01-19T14:36:36.064Z,73.48
2023-01-19T14:39:03.536Z,74.46
2023-01-19T14:41:33.072Z,73.60
2023-01-19T14:44:00.599Z,74.66
2023-01-19T14:46:27.330Z,74.57
2023-01-19T14:49:01.089Z,74.17
2023-01-19T14:51:28.250Z,76.04
2023-01-19T14:53:58.903Z,76.38
2023-01-19T14:56:28.221Z,74.34
2023-01-19T14:58:59.477Z,75.99
2023-01-19T15:01:31.338Z,76.67
2023-01-19T15:03:58.444Z,76.40
2023-01-19T15:06:26.378Z,76.60
2023-01-19T15:08:53.666Z,76.05
2023-01-19T15:11:35.730Z,76.54
2023-01-19T15:14:02.785Z,76.29
2023-01-19T15:16:31.968Z,76.11
2023-01-19T15:18:58.564Z,77.10
2023-01-19T15:21:28.503Z,76.96
2023-01-19T15:23:55.582Z,76.48
2023-01-19T15:26:24.585Z,76.77
2023-01-19T15:28:51.577Z,77.08
2023-01-19T15:31:21.182Z,76.99
2023-01-19T15:33:47.792Z,77.67
2023-01-19T15:36:17.997Z,77.29
2023-01-19T15:38:45.553Z,76.33
2023-01-19T15:41:23.492Z,76.35
2023-01-19T15:43:50.658Z,76.00
2023-01-19T15:46:20.113Z,76.55
2023-01-19T15:48:48.055Z,76.41
2023-01-19T15:51:16.805Z,76.54
2023-01-19T15:53:43.961Z,77.70
2023-01-19T15:56:18.637Z,77.87
2023-01-19T15:58:45.483Z,77.64
2023-01-19T16:01:14.525Z,76.45
2023-01-19T16:03:41.590Z,75.48
2023-01-19T16:06:09.001Z,76.31
2023-01-19T16:08:36.922Z,76.84
2023-01-19T16:11:10.114Z,77.23
2023-01-19T16:13:36.787Z,77.12
2023-01-19T16:16:08.621Z,77.59
2023-01-19T16:18:35.189Z,77.30
2023-01-19T16:21:01.932Z,77.35
2023-01-19T16:23:28.455Z,78.02
2023-01-19T16:26:00.611Z,77.15
2023-01-19T16:28:27.987Z,77.84
2023-01-19T16:30:54.616Z,76.85
2023-01-19T16:33:21.195Z,76.17
2023-01-19T16:35:47.893Z,76.09
2023-01-19T16:38:14.831Z,74.91
2023-01-19T16:40:44.985Z,76.14
2023-01-19T16:43:12.972Z,76.82
2023-01-19T16:46:00.542Z,76.71
2023-01-19T16:48:28.425Z,77.05
2023-01-19T16:51:04.423Z,76.94
2023-01-19T16:53:34.805Z,77.04
2023-01-19T16:56:08.727Z,77.62
2023-01-19T16:58:38.209Z,78.59
2023-01-19T17:01:09.523Z,78.91
2023-01-19T17:03:36.459Z,79.24
2023-01-19T17:06:03.091Z,79.44
2023-01-19T17:08:29.581Z,79.13
2023-01-19T17:10:56.243Z,79.86
2023-01-19T17:13:24.047Z,80.30
2023-01-19T17:15:50.693Z,80.09
2023-01-19T17:18:18.064Z,80.11
2023-01-19T17:20:44.615Z,80.32
2023-01-19T17:23:11.133Z,80.64
2023-01-19T17:25:37.621Z,80.35
2023-01-19T17:28:04.269Z,79.82
2023-01-19T17:30:30.853Z,80.29
2023-01-19T17:32:57.429Z,81.08
2023-01-19T17:35:24.000Z,80.93
2023-01-19T17:37:54.064Z,80.85
2023-01-19T17:40:20.611Z,81.19
2023-01-19T17:42:47.092Z,81.48
2023-01-19T17:45:13.681Z,81.72
2023-01-19T17:47:40.253Z,81.37
2023-01-19T17:50:07.126Z,79.41
2023-01-19T17:52:33.667Z,80.33
2023-01-19T17:55:00.433Z,81.08
2023-01-19T17:57:27.858Z,81.62
2023-01-19T17:59:54.526Z,82.29
2023-01-19T18:02:24.375Z,82.10
2023-01-19T18:04:52.698Z,81.82
2023-01-19T18:07:19.489Z,81.69
2023-01-19T18:09:46.202Z,81.92
2023-01-19T18:12:12.923Z,82.75
2023-01-19T18:14:40.333Z,82.43
2023-01-19T18:17:07.293Z,82.82
2023-01-19T18:19:33.928Z,82.93
2023-01-19T18:22:00.424Z,82.84
2023-01-19T18:24:27.005Z,82.93
2023-01-19T18:26:55.677Z,83.27
2023-01-19T18:29:22.405Z,82.80
2023-01-19T18:31:48.961Z,83.01
2023-01-19T18:34:15.530Z,82.75
2023-01-19T18:36:42.200Z,82.86
2023-01-19T18:39:09.434Z,83.63
2023-01-19T18:41:41.696Z,82.52
2023-01-19T18:44:09.945Z,81.95
2023-01-19T18:46:37.334Z,82.91
2023-01-19T18:49:04.375Z,83.08
2023-01-19T18:51:31.252Z,83.54
2023-01-19T18:53:58.724Z,83.46
2023-01-19T18:56:26.110Z,83.36
2023-01-19T18:58:53.597Z,84.18
2023-01-19T19:01:33.658Z,83.79
2023-01-19T19:04:00.852Z,84.06
2023-01-19T19:06:27.843Z,83.99
2023-01-19T19:08:56.449Z,83.88
2023-01-19T19:11:24.541Z,83.96
2023-01-19T19:13:56.415Z,84.08
2023-01-19T19:16:23.091Z,84.25
2023-01-19T19:18:50.119Z,84.14
2023-01-19T19:21:18.824Z,84.23
2023-01-19T19:23:53.921Z,84.90
2023-01-19T19:26:21.185Z,85.57
2023-01-19T19:28:47.919Z,85.32
2023-01-19T19:31:18.097Z,85.33
2023-01-19T19:33:44.855Z,85.56
2023-01-19T19:36:12.611Z,85.72
2023-01-19T19:38:41.204Z,86.05
2023-01-19T19:41:10.075Z,85.58
2023-01-19T19:43:37.046Z,85.06
2023-01-19T19:46:09.091Z,86.12
2023-01-19T19:48:39.128Z,85.72
2023-01-19T19:51:18.971Z,85.71
2023-01-19T19:53:47.849Z,85.71
2023-01-19T19:56:15.781Z,86.17
2023-01-19T19:58:43.266Z,86.27
2023-01-19T20:01:15.146Z,86.25
2023-01-19T20:03:42.465Z,86.04
2023-01-19T20:06:12.403Z,86.50
2023-01-19T20:08:39.418Z,86.50
2023-01-19T20:11:18.037Z,86.59
2023-01-19T20:13:45.585Z,86.55
2023-01-19T20:16:15.320Z,86.32
2023-01-19T20:18:44.215Z,86.80
2023-01-19T20:21:13.860Z,86.17
2023-01-19T20:23:41.507Z,86.48
2023-01-19T20:26:09.968Z,86.05
2023-01-19T20:28:37.898Z,86.01
2023-01-19T20:31:26.890Z,86.27
2023-01-19T20:33:56.275Z,86.31
2023-01-19T20:36:24.367Z,85.99
2023-01-19T20:38:54.654Z,86.22
2023-01-19T20:41:22.187Z,86.13
2023-01-19T20:43:49.225Z,86.19
2023-01-19T20:46:15.822Z,86.61
2023-01-19T20:48:42.361Z,86.79
2023-01-19T20:51:12.120Z,86.66
2023-01-19T20:53:40.529Z,87.00
2023-01-19T20:56:11.164Z,86.59
2023-01-19T20:58:38.409Z,86.94
2023-01-19T21:01:14.173Z,86.45
2023-01-19T21:03:41.522Z,87.41
2023-01-19T21:06:08.573Z,86.75
2023-01-19T21:08:35.231Z,86.92
2023-01-19T21:11:02.784Z,87.00
2023-01-19T21:13:29.321Z,86.98
2023-01-19T21:15:55.845Z,86.90
2023-01-19T21:18:22.393Z,87.20
2023-01-19T21:20:49.170Z,87.06
2023-01-19T21:23:16.137Z,87.19
2023-01-19T21:25:57.584Z,86.76
2023-01-19T21:28:24.993Z,86.85
2023-01-19T21:30:52.861Z,86.89
2023-01-19T21:33:20.582Z,86.96
2023-01-19T21:35:54.861Z,87.30
2023-01-19T21:38:22.814Z,86.93
2023-01-19T21:40:50.285Z,87.19
2023-01-19T21:43:17.493Z,87.80
2023-01-19T21:45:44.052Z,87.55
2023-01-19T21:48:10.753Z,87.72
2023-01-19T21:50:37.283Z,87.50
2023-01-19T21:53:06.028Z,87.36
2023-01-19T21:55:33.223Z,87.90
2023-01-19T21:57:59.786Z,87.94
2023-01-19T22:00:29.576Z,88.15
2023-01-19T22:03:03.787Z,87.99
2023-01-19T22:05:36.603Z,88.35
2023-01-19T22:08:04.265Z,88.51
2023-01-19T22:10:30.788Z,88.67
2023-01-19T22:12:57.427Z,88.28
2023-01-19T22:15:23.944Z,88.54
2023-01-19T22:17:50.470Z,88.30
2023-01-19T22:20:17.423Z,88.66
2023-01-19T22:22:43.964Z,88.32
2023-01-19T22:25:10.701Z,88.68
2023-01-19T22:27:38.724Z,88.24
2023-01-19T22:30:05.872Z,88.78
2023-01-19T22:32:32.586Z,88.41
2023-01-19T22:34:59.099Z,88.40
2023-01-19T22:37:25.644Z,88.32
2023-01-19T22:39:53.016Z,88.90
2023-01-19T22:42:19.578Z,88.48
2023-01-19T22:44:46.863Z,88.39
2023-01-19T22:47:14.079Z,89.00
2023-01-19T22:49:40.770Z,88.53
2023-01-19T22:52:07.638Z,88.50
2023-01-19T22:54:34.202Z,88.32
2023-01-19T22:57:00.871Z,88.31
2023-01-19T22:59:27.532Z,87.97
2023-01-19T23:17:53.547Z,89.93
2023-01-19T23:20:20.114Z,90.74
2023-01-19T23:22:46.605Z,90.45
2023-01-19T23:25:13.213Z,90.83
2023-01-19T23:27:40.295Z,90.20
2023-01-19T23:30:07.957Z,89.99
2023-01-19T23:32:34.455Z,89.54
2023-01-19T23:35:00.976Z,89.61
2023-01-19T23:37:27.459Z,89.16
2023-01-19T23:39:53.994Z,89.27
2023-01-19T23:42:20.472Z,89.64
2023-01-19T23:44:46.976Z,89.21
2023-01-19T23:47:13.512Z,89.41
2023-01-19T23:49:40.216Z,89.44
2023-01-19T23:52:06.693Z,89.85
2023-01-19T23:54:33.388Z,89.55
2023-01-19T23:56:59.866Z,89.50
2023-01-19T23:59:26.355Z,88.89
